Orangeburg, SC

5:34 PM EDT on March 31, 2015 (GMT -0400)
APRSWXNET | | Change Station
CLOSE
Current Station
Personal Weather Station
Location: Cordova, SC
Elevation: 206 ft
Nearby Weather Stations
Active Advisory: Special Statement

Elev 206 ft 33.49 °N, 80.93 °W | Updated 28 minutes ago

Clear
Clear
80 °F
Feels Like 80 °F
N
6
Wind Variable Wind from WSW
Gusts 14.0 mph

Today
High -- | Low -- °F
--% Chance of Precip.
Yesterday
High -- | Low -- °F
Precip. -- in
7:12 AM 7:43 PM
Waxing Gibbous, 89% visible
Pressure 29.88 in
Visibility 10.0 miles
Clouds Clear
Heat Index 80 °F
Dew Point 50 °F
Humidity 35%
Rainfall in
Snow Depth Not available.
UV 4 out of 12
Pollen 10.50 out of 12
Air Quality Not available.
Flu Activity Not available.
METAR KOGB 312053Z AUTO 26015G21KT 10SM CLR 27/06 A2988 RMK AO2 PK WND 23032/2030 SLP117 T02670056 56035

More Conditions Fewer Conditions

Pressure 29.88 in
Visibility 10.0 miles
Clouds Clear
Heat Index 80 °F
Dew Point 50 °F
Humidity 35%
Rainfall in
Snow Depth Not available.
UV 4 out of 12
Pollen 10.50 out of 12
Air Quality Not available.
Flu Activity Not available.
METAR KOGB 312053Z AUTO 26015G21KT 10SM CLR 27/06 A2988 RMK AO2 PK WND 23032/2030 SLP117 T02670056 56035

More Conditions Fewer Conditions

10-Day Weather Forecast

Almanac

Astronomy

Mar. 31, 2015 Rise Set
Actual Time
Civil Twilight
Nautical Twilight
Astronomical Twilight
Moon
Length of Visible Light
Length of Day
Tomorrow will be .
, % of the Moon is Illuminated

Today's Extremes

State Highs State Lows

Community

WunderPhotos

Upload Photos

1,809,842 photos uploaded!

WunderBlogs® & News

Nearby

Air Quality

  Air Quality AQ Index Pollutant
Not available.

Snow Depth

Station Depth Elevation

Earthquake Activity

City Distance Mag. Time & Date
Minimum magnitude displayed is 2.5.

Coastal Water Temperatures

Place Temperature

Stations

Nearby Weather Stations

Station Location Temp. Windchill Dew Point Humidity Wind Precip. Elev Updated Type
                   
Special Statement
Statement as of 3:41 PM EDT on March 31, 2015

... Increased fire danger this afternoon...

Temperatures in the mid 70s to lower 80s combined with dry air has
produced relative humidities around 20 percent this afternoon.
In addition... southwest winds have increased to 15 to 20 mph with
gusts up to 30 mph. Fine fuels will be slowly drying and fuel
moisture may reach critical values through early this evening.
The combination of dry air and fuels will heighten fire danger
through 7 PM this evening.